Time;durP1;ratioP1;P1;durP2;ratioP2;P2;SDS_P1;SDS_P2;PMS_P1;PMS_P2;Temp;Humidity;BMP_temperature;BMP_pressure;BME280_temperature;BME280_humidity;BME280_pressure;Samples;Min_cycle;Max_cycle;Signal;HPM_P1;HPM_P2
2022/03/29 00:00:58;;;;;;;6.90;4.57;;;16.80;91.80;;;;;;2005104;28;20203;-70
2022/03/29 00:01:59;;;;;;;10.40;4.78;;;16.80;91.90;;;;;;2004542;28;20259;-70
2022/03/29 00:02:57;;;;;;;5.40;3.75;;;16.80;91.80;;;;;;2004571;28;20513;-71
2022/03/29 00:03:56;;;;;;;6.07;3.70;;;16.80;92.00;;;;;;2005251;28;20184;-70
2022/03/29 00:04:59;;;;;;;5.70;3.80;;;16.80;92.00;;;;;;2005057;28;20180;-70
2022/03/29 00:05:59;;;;;;;7.10;4.75;;;;;;;;;;2005170;28;20280;-70
2022/03/29 00:06:57;;;;;;;7.55;4.50;;;16.70;91.70;;;;;;2005057;28;20181;-70
2022/03/29 00:07:56;;;;;;;7.90;5.13;;;16.80;92.00;;;;;;2005297;28;20169;-70
2022/03/29 00:08:55;;;;;;;7.17;3.93;;;16.70;91.90;;;;;;2004154;28;20203;-71
2022/03/29 00:09:54;;;;;;;5.65;4.28;;;16.80;92.00;;;;;;2005178;28;20622;-70
2022/03/29 00:10:53;;;;;;;5.03;3.40;;;16.80;91.80;;;;;;2005231;28;20258;-70
2022/03/29 00:11:51;;;;;;;7.43;4.50;;;16.80;91.90;;;;;;2005110;28;20161;-70
2022/03/29 00:12:53;;;;;;;6.57;4.77;;;16.80;91.90;;;;;;2005206;28;20215;-70
2022/03/29 00:13:51;;;;;;;6.70;4.45;;;16.70;91.80;;;;;;2005203;28;20549;-70
2022/03/29 00:14:50;;;;;;;7.20;4.47;;;16.80;92.00;;;;;;2005046;28;20205;-69
2022/03/29 00:15:50;;;;;;;7.80;4.73;;;16.80;91.90;;;;;;2004826;28;20299;-69
2022/03/29 00:16:50;;;;;;;9.50;4.82;;;;;;;;;;2004961;28;20177;-70
2022/03/29 00:17:50;;;;;;;9.65;4.13;;;16.70;91.70;;;;;;2005106;28;20184;-69
2022/03/29 00:18:48;;;;;;;6.95;4.78;;;16.80;91.90;;;;;;2004379;28;20179;-70
2022/03/29 00:19:48;;;;;;;5.50;4.40;;;16.80;91.90;;;;;;2004445;28;20185;-70
2022/03/29 00:20:47;;;;;;;5.97;4.10;;;16.80;92.20;;;;;;2004034;28;20185;-70
2022/03/29 00:21:46;;;;;;;6.90;4.33;;;16.70;91.90;;;;;;2004827;28;20236;-70
2022/03/29 00:22:47;;;;;;;6.97;4.73;;;16.80;91.80;;;;;;2006524;28;20578;-70
2022/03/29 00:23:46;;;;;;;5.25;4.25;;;16.70;91.90;;;;;;2007911;28;20669;-70
2022/03/29 00:24:45;;;;;;;6.50;4.43;;;16.80;92.00;;;;;;2009551;28;20196;-70
2022/03/29 00:25:43;;;;;;;6.70;3.90;;;16.80;91.90;;;;;;2012552;28;20928;-69
2022/03/29 00:26:42;;;;;;;6.20;3.90;;;16.70;91.80;;;;;;2011971;28;20185;-69
2022/03/29 00:27:41;;;;;;;7.13;3.87;;;16.80;91.90;;;;;;2006021;28;20535;-69
2022/03/29 00:28:40;;;;;;;6.85;4.22;;;16.70;91.80;;;;;;2005574;28;20219;-70
2022/03/29 00:29:38;;;;;;;8.03;3.90;;;16.80;91.80;;;;;;2005551;28;20688;-70
2022/03/29 00:30:37;;;;;;;5.40;3.90;;;16.70;91.90;;;;;;2005181;28;20592;-70
2022/03/29 00:31:35;;;;;;;6.93;4.63;;;16.80;91.90;;;;;;2005278;28;20201;-70
2022/03/29 00:32:35;;;;;;;6.60;4.30;;;16.70;91.80;;;;;;2005106;28;20176;-70
2022/03/29 00:33:33;;;;;;;6.55;4.25;;;16.80;91.90;;;;;;2004914;28;20203;-70
2022/03/29 00:34:32;;;;;;;6.43;4.50;;;16.80;91.90;;;;;;2005118;28;20503;-70
2022/03/29 00:35:31;;;;;;;7.00;4.33;;;16.80;91.90;;;;;;2004931;28;20201;-70
2022/03/29 00:36:29;;;;;;;6.60;4.17;;;16.80;91.90;;;;;;2005051;28;20180;-70
2022/03/29 00:37:28;;;;;;;5.53;4.20;;;16.70;91.80;;;;;;2005005;28;20642;-69
2022/03/29 00:38:26;;;;;;;7.63;4.90;;;16.70;91.80;;;;;;2005060;28;20450;-70
2022/03/29 00:39:25;;;;;;;7.67;4.73;;;16.70;91.80;;;;;;2005586;28;20177;-70
2022/03/29 00:40:24;;;;;;;7.67;4.80;;;16.70;91.70;;;;;;2004201;28;20692;-70
2022/03/29 00:41:22;;;;;;;7.00;4.17;;;16.70;91.80;;;;;;2004299;28;20184;-70
2022/03/29 00:42:21;;;;;;;6.53;4.50;;;16.70;91.90;;;;;;2004729;28;20187;-71
2022/03/29 00:43:19;;;;;;;6.20;3.80;;;16.70;91.80;;;;;;2004883;28;20216;-69
2022/03/29 00:44:18;;;;;;;5.40;4.00;;;16.70;91.80;;;;;;2004893;28;20244;-69
2022/03/29 00:45:17;;;;;;;6.93;4.50;;;16.70;91.80;;;;;;2004796;28;20208;-68
2022/03/29 00:46:15;;;;;;;5.30;3.47;;;16.70;91.80;;;;;;2004759;28;20188;-70
2022/03/29 00:47:14;;;;;;;6.23;3.90;;;16.70;91.80;;;;;;2004165;28;20717;-69
2022/03/29 00:48:13;;;;;;;7.20;4.00;;;16.70;91.80;;;;;;2004301;28;20189;-69
2022/03/29 00:49:12;;;;;;;5.85;3.97;;;16.70;91.80;;;;;;2004714;28;20205;-71
2022/03/29 00:50:11;;;;;;;6.87;4.27;;;16.70;91.80;;;;;;2004688;28;20180;-70
2022/03/29 00:51:10;;;;;;;7.32;4.70;;;16.70;91.70;;;;;;2004751;28;20173;-70
2022/03/29 00:52:09;;;;;;;5.33;4.13;;;16.70;91.80;;;;;;2004881;28;20181;-70
2022/03/29 00:53:09;;;;;;;6.90;4.22;;;16.70;91.70;;;;;;2004854;28;20165;-69
2022/03/29 00:54:08;;;;;;;5.65;3.88;;;16.70;91.90;;;;;;2004793;28;20161;-71
2022/03/29 00:55:12;;;;;;;6.60;3.97;;;16.70;91.80;;;;;;2004637;28;20223;-69
2022/03/29 00:56:11;;;;;;;7.03;4.30;;;16.70;91.70;;;;;;2004748;28;20782;-70
2022/03/29 00:57:11;;;;;;;6.13;4.05;;;16.70;91.70;;;;;;2004690;28;20207;-70
2022/03/29 00:58:11;;;;;;;5.85;3.70;;;16.70;91.80;;;;;;2004073;28;20187;-69
2022/03/29 00:59:11;;;;;;;5.30;4.13;;;16.70;91.80;;;;;;2004224;28;20173;-70
2022/03/29 01:00:10;;;;;;;10.10;4.75;;;16.70;91.70;;;;;;2004779;28;20180;-69
2022/03/29 01:01:10;;;;;;;5.07;3.88;;;16.70;91.80;;;;;;2004818;28;20184;-69
2022/03/29 01:02:09;;;;;;;6.80;4.22;;;16.70;91.80;;;;;;2004672;28;20770;-69
2022/03/29 01:03:08;;;;;;;9.23;4.38;;;16.70;91.80;;;;;;2004850;28;20173;-68
2022/03/29 01:04:08;;;;;;;6.10;4.00;;;16.70;91.70;;;;;;2004733;28;20183;-69
2022/03/29 01:05:07;;;;;;;6.90;4.35;;;16.70;91.80;;;;;;2004642;28;20219;-69
2022/03/29 01:06:06;;;;;;;8.52;4.82;;;16.70;91.70;;;;;;2004535;28;20242;-70
2022/03/29 01:07:05;;;;;;;7.20;4.00;;;16.70;91.80;;;;;;2004642;28;20173;-70
2022/03/29 01:08:05;;;;;;;8.32;4.47;;;16.70;91.90;;;;;;2004559;28;20180;-70
2022/03/29 01:09:03;;;;;;;5.60;4.00;;;16.70;91.70;;;;;;2004715;28;20250;-70
2022/03/29 01:10:06;;;;;;;14.83;3.97;;;16.70;91.80;;;;;;2004632;28;20561;-71
2022/03/29 01:11:12;;;;;;;5.80;4.13;;;16.70;91.90;;;;;;2004687;28;20645;-69
2022/03/29 01:12:10;;;;;;;5.05;4.10;;;16.70;91.90;;;;;;2004680;28;20242;-70
2022/03/29 01:13:09;;;;;;;6.70;4.10;;;16.70;91.90;;;;;;2004752;28;20677;-70
2022/03/29 01:14:08;;;;;;;7.00;4.27;;;16.70;91.80;;;;;;2004556;28;20218;-70
2022/03/29 01:15:09;;;;;;;6.30;4.57;;;16.70;91.90;;;;;;2004750;28;20169;-70
2022/03/29 01:17:40;;;;;;;6.40;4.55;;;16.70;91.80;;;;;;2004685;28;20161;-71
2022/03/29 01:18:40;;;;;;;6.40;4.50;;;16.60;91.80;;;;;;2004759;28;20158;-70
2022/03/29 01:19:42;;;;;;;6.18;4.05;;;16.70;91.80;;;;;;2004563;28;20256;-70
2022/03/29 01:20:45;;;;;;;5.82;3.85;;;16.60;91.90;;;;;;2003749;28;20223;-70
2022/03/29 01:21:56;;;;;;;5.55;3.88;;;16.70;91.80;;;;;;2003954;28;20622;-70
2022/03/29 01:22:55;;;;;;;6.53;4.32;;;16.70;91.80;;;;;;2004557;28;20501;-70
2022/03/29 01:23:54;;;;;;;6.13;4.30;;;16.70;91.70;;;;;;2004719;28;20593;-71
2022/03/29 01:24:52;;;;;;;8.73;5.17;;;16.70;91.70;;;;;;2004560;28;20219;-70
2022/03/29 01:25:52;;;;;;;8.60;4.70;;;16.70;91.80;;;;;;2004424;28;20264;-70
2022/03/29 01:26:56;;;;;;;6.95;4.30;;;16.70;91.80;;;;;;2004637;28;20299;-70
2022/03/29 01:27:55;;;;;;;6.00;4.28;;;16.70;91.80;;;;;;2004516;28;20205;-70
2022/03/29 01:28:54;;;;;;;9.90;4.60;;;16.70;91.80;;;;;;2004427;28;20215;-70
2022/03/29 01:29:57;;;;;;;4.93;3.83;;;16.70;91.70;;;;;;2004463;28;20161;-70
2022/03/29 01:30:55;;;;;;;7.05;4.40;;;16.70;91.80;;;;;;2004561;28;20177;-70
2022/03/29 01:31:54;;;;;;;6.20;4.23;;;16.70;91.90;;;;;;2004629;28;20252;-70
2022/03/29 01:32:54;;;;;;;9.37;4.43;;;16.70;91.90;;;;;;2004442;28;20196;-71
2022/03/29 01:33:53;;;;;;;6.03;3.75;;;16.60;91.80;;;;;;2003868;28;20177;-70
2022/03/29 01:34:51;;;;;;;6.43;4.43;;;16.60;91.80;;;;;;2004003;28;20184;-70
2022/03/29 01:35:52;;;;;;;4.80;3.67;;;16.60;91.80;;;;;;2004485;28;20966;-70
2022/03/29 01:36:51;;;;;;;5.07;3.80;;;16.60;91.80;;;;;;2004585;28;20574;-70
2022/03/29 01:37:51;;;;;;;6.97;4.03;;;16.70;91.80;;;;;;2004622;28;20181;-70
2022/03/29 01:38:50;;;;;;;7.35;3.90;;;16.60;91.70;;;;;;2004559;28;20176;-70
2022/03/29 01:39:48;;;;;;;8.50;3.93;;;16.60;91.80;;;;;;2004607;28;20191;-70
2022/03/29 01:40:47;;;;;;;6.17;3.80;;;16.60;91.80;;;;;;2004521;28;20416;-70
2022/03/29 01:41:46;;;;;;;6.67;4.20;;;16.60;91.80;;;;;;2004601;28;20176;-71
2022/03/29 01:42:53;;;;;;;6.82;3.90;;;16.60;91.80;;;;;;2004613;28;20205;-70
2022/03/29 01:43:52;;;;;;;7.85;4.43;;;16.60;91.80;;;;;;2004572;28;20184;-70
2022/03/29 01:44:50;;;;;;;6.50;4.07;;;16.60;91.90;;;;;;2004437;28;20172;-70
2022/03/29 01:45:49;;;;;;;7.50;3.63;;;16.60;91.80;;;;;;2004475;28;20193;-70
2022/03/29 01:46:49;;;;;;;7.10;3.87;;;16.70;91.80;;;;;;2004554;28;20583;-70
2022/03/29 01:47:48;;;;;;;8.07;4.18;;;16.70;91.80;;;;;;2004472;28;20213;-70
2022/03/29 01:48:48;;;;;;;6.60;4.23;;;16.60;91.80;;;;;;2004413;28;20239;-70
2022/03/29 01:49:47;;;;;;;6.75;4.50;;;16.60;91.70;;;;;;2004368;28;20193;-70
2022/03/29 01:50:48;;;;;;;4.70;3.50;;;16.60;91.70;;;;;;2004510;28;20277;-70
2022/03/29 01:51:47;;;;;;;7.22;3.80;;;16.60;91.80;;;;;;2004565;28;20629;-70
2022/03/29 01:52:47;;;;;;;6.97;4.05;;;16.60;91.80;;;;;;2004542;28;20175;-70
2022/03/29 01:53:53;;;;;;;5.60;4.50;;;16.60;91.70;;;;;;2004545;28;20176;-70
2022/03/29 01:54:52;;;;;;;8.20;4.57;;;16.60;91.90;;;;;;2004529;28;20157;-70
2022/03/29 01:55:57;;;;;;;7.20;4.40;;;16.60;91.80;;;;;;2004263;28;20192;-70
2022/03/29 01:56:57;;;;;;;8.88;4.18;;;16.60;91.80;;;;;;2004424;28;20613;-71
2022/03/29 01:57:56;;;;;;;4.53;3.42;;;16.60;91.90;;;;;;2004350;28;20252;-70
2022/03/29 01:58:54;;;;;;;6.23;4.03;;;16.60;91.80;;;;;;2004328;28;20188;-71
2022/03/29 02:01:10;;;;;;;6.20;3.33;;;16.60;91.90;;;;;;2004468;28;20621;-71
2022/03/29 02:02:09;;;;;;;7.10;4.13;;;16.60;91.80;;;;;;2004377;28;20157;-70
2022/03/29 02:03:09;;;;;;;5.70;4.00;;;16.60;91.80;;;;;;2004377;28;20311;-69
2022/03/29 02:04:08;;;;;;;4.47;3.55;;;16.60;91.70;;;;;;2004390;28;20219;-71
2022/03/29 02:05:07;;;;;;;6.18;4.00;;;16.60;91.80;;;;;;2004490;28;20181;-71
2022/03/29 02:06:08;;;;;;;6.38;4.35;;;16.60;91.80;;;;;;2004275;28;20210;-71
2022/03/29 02:07:07;;;;;;;6.22;4.10;;;16.60;91.70;;;;;;2004355;28;20261;-69
2022/03/29 02:08:07;;;;;;;5.38;3.60;;;16.60;91.70;;;;;;2004456;28;20177;-71
2022/03/29 02:09:06;;;;;;;5.47;4.15;;;16.60;91.80;;;;;;2004302;28;20262;-70
2022/03/29 02:10:06;;;;;;;6.20;4.60;;;16.60;91.80;;;;;;2004302;28;20172;-70
2022/03/29 02:11:05;;;;;;;9.07;4.43;;;;;;;;;;2004354;28;20169;-70
2022/03/29 02:12:05;;;;;;;5.60;3.80;;;16.60;91.60;;;;;;2004201;28;20268;-69
2022/03/29 02:13:03;;;;;;;6.18;4.35;;;16.60;91.80;;;;;;2004236;28;21003;-70
2022/03/29 02:14:02;;;;;;;6.90;4.40;;;16.60;91.80;;;;;;2004348;28;20533;-70
2022/03/29 02:15:03;;;;;;;6.20;4.47;;;16.60;91.80;;;;;;2004330;28;20415;-70
2022/03/29 02:16:01;;;;;;;6.32;4.40;;;16.60;91.80;;;;;;2003490;28;20471;-70
2022/03/29 02:17:00;;;;;;;4.70;3.70;;;16.60;91.80;;;;;;2003721;28;20183;-69
2022/03/29 02:17:59;;;;;;;4.93;3.70;;;16.60;91.80;;;;;;2004306;28;20169;-70
2022/03/29 02:18:57;;;;;;;5.83;4.47;;;16.60;91.60;;;;;;2004304;28;20173;-70
2022/03/29 02:19:56;;;;;;;5.70;3.70;;;16.60;91.70;;;;;;2004307;28;20229;-70
2022/03/29 02:20:55;;;;;;;6.00;4.20;;;16.60;91.80;;;;;;2003590;28;20658;-70
2022/03/29 02:21:53;;;;;;;6.60;3.87;;;16.60;91.60;;;;;;2003724;28;20180;-70
2022/03/29 02:22:52;;;;;;;7.20;4.03;;;16.60;91.80;;;;;;2004168;28;20435;-70
2022/03/29 02:23:50;;;;;;;8.00;4.30;;;16.60;91.80;;;;;;2003441;28;20196;-70
2022/03/29 02:24:49;;;;;;;6.27;4.30;;;16.60;91.70;;;;;;2003553;28;20185;-70
2022/03/29 02:25:48;;;;;;;7.00;4.97;;;16.60;91.80;;;;;;2003506;28;20572;-70
2022/03/29 02:26:46;;;;;;;6.40;3.90;;;16.60;91.90;;;;;;2003784;28;20176;-70
2022/03/29 02:27:45;;;;;;;5.63;4.40;;;16.60;91.70;;;;;;2004209;28;20575;-70
2022/03/29 02:28:44;;;;;;;4.93;3.47;;;16.60;91.80;;;;;;2004220;28;20547;-70
2022/03/29 02:29:43;;;;;;;4.13;3.30;;;16.60;91.80;;;;;;2004373;28;20276;-70
2022/03/29 02:30:41;;;;;;;4.40;3.53;;;16.60;91.80;;;;;;2004274;28;20524;-70
2022/03/29 02:31:40;;;;;;;5.33;3.70;;;16.60;91.70;;;;;;2004263;28;20260;-70
2022/03/29 02:32:40;;;;;;;9.20;3.80;;;16.60;91.80;;;;;;2005443;28;20208;-70
2022/03/29 02:33:38;;;;;;;6.85;4.45;;;16.60;91.70;;;;;;2005837;28;20247;-70
2022/03/29 02:34:37;;;;;;;6.83;4.00;;;16.60;91.70;;;;;;2006024;28;20247;-70
2022/03/29 02:35:35;;;;;;;6.17;4.20;;;16.60;91.70;;;;;;2005606;28;20643;-70
2022/03/29 02:36:34;;;;;;;6.53;3.53;;;16.60;91.80;;;;;;2005721;28;20188;-69
2022/03/29 02:37:33;;;;;;;5.13;3.03;;;16.60;91.70;;;;;;2005760;28;20553;-69
2022/03/29 02:38:31;;;;;;;5.43;3.87;;;16.60;91.70;;;;;;2005777;28;20173;-69
2022/03/29 02:39:30;;;;;;;6.50;3.60;;;16.60;91.70;;;;;;2005026;28;20205;-70
2022/03/29 02:40:28;;;;;;;4.83;3.40;;;16.60;91.70;;;;;;2005176;28;20173;-70
2022/03/29 02:41:27;;;;;;;7.63;4.13;;;16.60;91.70;;;;;;2004564;28;20169;-69
2022/03/29 02:42:26;;;;;;;4.83;3.40;;;16.60;91.70;;;;;;2005115;28;20169;-69
2022/03/29 02:43:25;;;;;;;5.70;3.70;;;16.60;91.80;;;;;;2005706;28;20193;-69
2022/03/29 02:44:24;;;;;;;6.40;4.28;;;16.60;91.80;;;;;;2005014;28;20173;-69
2022/03/29 02:45:24;;;;;;;6.73;4.00;;;16.60;91.80;;;;;;2005013;28;20176;-69
2022/03/29 02:46:23;;;;;;;5.30;3.92;;;16.60;91.80;;;;;;2005861;28;20177;-70
2022/03/29 02:47:22;;;;;;;5.83;3.70;;;16.60;91.70;;;;;;2005718;28;20181;-70
2022/03/29 02:48:21;;;;;;;5.60;4.30;;;16.60;91.70;;;;;;2005652;28;20412;-70
2022/03/29 02:49:21;;;;;;;5.83;3.60;;;16.60;91.70;;;;;;2005767;28;20201;-69
2022/03/29 02:50:20;;;;;;;5.07;4.05;;;16.60;91.80;;;;;;2005799;28;20757;-69
2022/03/29 02:51:19;;;;;;;4.50;3.40;;;16.60;91.70;;;;;;2004918;28;20247;-69
2022/03/29 02:52:18;;;;;;;5.00;3.50;;;16.60;91.70;;;;;;2005592;28;20227;-69
2022/03/29 02:53:16;;;;;;;5.43;3.90;;;16.70;91.80;;;;;;2005680;28;20553;-69
2022/03/29 02:54:15;;;;;;;4.53;3.47;;;16.60;91.80;;;;;;2005594;28;20177;-69
2022/03/29 02:55:15;;;;;;;4.27;3.40;;;16.50;91.70;;;;;;2005008;28;20184;-69
2022/03/29 02:56:14;;;;;;;6.07;4.15;;;16.60;91.90;;;;;;2004922;28;20292;-69
2022/03/29 02:57:12;;;;;;;6.03;3.83;;;16.60;91.80;;;;;;2005644;28;20196;-69
2022/03/29 02:58:12;;;;;;;7.63;4.43;;;16.60;91.60;;;;;;2005570;28;20172;-69
2022/03/29 02:59:10;;;;;;;4.90;3.40;;;16.50;91.70;;;;;;2005633;28;20199;-69
2022/03/29 03:00:12;;;;;;;5.20;3.60;;;16.60;91.70;;;;;;2005630;28;20183;-70
2022/03/29 03:01:11;;;;;;;5.60;3.85;;;16.60;91.70;;;;;;2005643;28;20196;-70
2022/03/29 03:02:11;;;;;;;6.00;3.70;;;16.60;91.70;;;;;;2005105;28;20260;-70
2022/03/29 03:03:09;;;;;;;5.45;3.97;;;16.60;91.70;;;;;;1997032;28;20245;-70
2022/03/29 03:04:08;;;;;;;4.20;2.87;;;16.60;91.80;;;;;;2004770;28;20275;-70
2022/03/29 03:05:08;;;;;;;4.53;3.57;;;16.50;91.70;;;;;;2005533;28;20231;-70
2022/03/29 03:06:07;;;;;;;5.82;3.60;;;16.50;91.70;;;;;;2004833;28;20236;-70
2022/03/29 03:07:06;;;;;;;3.93;3.23;;;16.60;91.70;;;;;;2004907;28;20187;-71
2022/03/29 03:08:05;;;;;;;4.55;3.40;;;16.50;91.80;;;;;;2005012;28;20189;-70
2022/03/29 03:09:04;;;;;;;6.10;3.80;;;16.50;91.70;;;;;;2005278;28;20719;-70
2022/03/29 03:10:03;;;;;;;5.07;4.10;;;16.50;91.70;;;;;;2009992;28;20173;-70
2022/03/29 03:11:01;;;;;;;6.35;4.03;;;16.50;91.80;;;;;;2013743;28;20173;-70
2022/03/29 03:12:00;;;;;;;5.93;4.00;;;16.50;91.70;;;;;;2013865;28;20185;-70
2022/03/29 03:12:58;;;;;;;7.60;3.40;;;16.50;91.70;;;;;;2014138;28;20242;-70
2022/03/29 03:13:57;;;;;;;11.20;3.73;;;16.50;91.80;;;;;;2008185;28;20184;-69
2022/03/29 03:14:55;;;;;;;5.30;3.97;;;16.50;91.70;;;;;;2006698;28;20185;-70
2022/03/29 03:15:54;;;;;;;4.77;3.70;;;16.50;91.60;;;;;;2006077;28;20275;-70
2022/03/29 03:16:53;;;;;;;5.33;3.50;;;16.50;91.70;;;;;;2006045;28;20173;-70
2022/03/29 03:17:53;;;;;;;3.63;3.10;;;16.50;91.70;;;;;;2005107;28;20654;-70
2022/03/29 03:18:51;;;;;;;5.00;3.80;;;16.50;91.70;;;;;;2005240;28;20169;-70
2022/03/29 03:19:50;;;;;;;5.10;3.90;;;16.50;91.70;;;;;;2005616;28;20223;-70
2022/03/29 03:20:48;;;;;;;6.53;4.00;;;16.50;91.70;;;;;;2005550;28;20181;-70
2022/03/29 03:21:47;;;;;;;4.33;3.23;;;16.50;91.70;;;;;;2005601;28;20638;-72
2022/03/29 03:22:45;;;;;;;4.67;3.17;;;16.50;91.70;;;;;;2005716;28;20188;-70
2022/03/29 03:23:44;;;;;;;4.83;3.50;;;16.50;91.70;;;;;;2005613;28;20256;-70
2022/03/29 03:24:42;;;;;;;7.83;4.27;;;16.50;91.70;;;;;;2005557;28;20184;-70
2022/03/29 03:25:41;;;;;;;5.23;3.20;;;16.50;91.80;;;;;;2005385;28;20201;-70
2022/03/29 03:26:40;;;;;;;7.20;3.90;;;16.40;91.60;;;;;;2005450;28;20196;-70
2022/03/29 03:27:40;;;;;;;6.83;3.87;;;16.40;91.60;;;;;;2005578;28;20185;-71
2022/03/29 03:28:40;;;;;;;4.22;3.55;;;16.40;91.70;;;;;;2005500;28;20173;-70
2022/03/29 03:29:39;;;;;;;4.20;3.10;;;16.40;91.70;;;;;;2005519;28;20247;-70
2022/03/29 03:30:38;;;;;;;6.30;3.43;;;16.40;91.60;;;;;;2005394;28;20169;-70
2022/03/29 03:31:37;;;;;;;5.88;3.10;;;16.40;91.70;;;;;;2005455;28;20177;-70
2022/03/29 03:32:36;;;;;;;4.50;3.40;;;16.40;91.70;;;;;;2005509;28;20692;-71
2022/03/29 03:33:35;;;;;;;4.07;3.43;;;16.50;91.70;;;;;;2005242;28;20276;-70
2022/03/29 03:34:33;;;;;;;4.80;3.43;;;16.40;91.70;;;;;;2005404;28;20408;-70
2022/03/29 03:35:32;;;;;;;4.40;3.40;;;16.50;91.70;;;;;;2005242;28;20509;-70
2022/03/29 03:36:30;;;;;;;8.60;3.83;;;16.40;91.70;;;;;;2005299;28;20646;-69
2022/03/29 03:37:30;;;;;;;4.30;3.10;;;16.40;91.60;;;;;;2005277;28;20638;-69
2022/03/29 03:38:28;;;;;;;4.97;3.22;;;16.40;91.70;;;;;;2005387;28;20220;-69
2022/03/29 03:39:27;;;;;;;4.67;3.40;;;16.50;91.80;;;;;;2005295;28;20267;-69
2022/03/29 03:40:25;;;;;;;5.60;3.50;;;16.40;91.80;;;;;;2005383;28;20201;-69
2022/03/29 03:41:24;;;;;;;5.67;3.67;;;16.40;91.80;;;;;;2005200;28;20518;-69
2022/03/29 03:42:22;;;;;;;3.67;3.27;;;16.40;91.70;;;;;;2004658;28;20216;-70
2022/03/29 03:43:21;;;;;;;5.17;4.00;;;16.40;91.60;;;;;;2004131;28;20185;-70
2022/03/29 03:44:20;;;;;;;5.38;3.80;;;16.40;91.80;;;;;;2004699;28;20304;-70
2022/03/29 03:45:19;;;;;;;6.83;3.10;;;16.40;91.80;;;;;;2005152;28;20707;-70
2022/03/29 03:46:17;;;;;;;6.67;3.50;;;16.40;91.70;;;;;;2005396;28;20185;-70
2022/03/29 03:47:16;;;;;;;4.53;3.50;;;16.40;91.70;;;;;;2005248;28;20219;-70
2022/03/29 03:48:15;;;;;;;4.23;3.03;;;16.40;91.70;;;;;;2005245;28;20256;-70
2022/03/29 03:49:13;;;;;;;4.53;3.30;;;16.40;91.70;;;;;;2005244;28;20459;-70
2022/03/29 03:50:12;;;;;;;7.27;3.70;;;16.40;91.80;;;;;;2005323;28;20165;-70
2022/03/29 03:51:11;;;;;;;4.13;2.73;;;16.40;91.80;;;;;;2005166;28;20656;-69
2022/03/29 03:52:09;;;;;;;4.47;2.80;;;16.40;91.80;;;;;;2005218;28;20172;-71
2022/03/29 03:53:08;;;;;;;5.43;3.43;;;16.40;91.80;;;;;;2005065;28;20165;-71
2022/03/29 03:54:07;;;;;;;3.87;2.87;;;16.40;91.80;;;;;;2005193;28;20165;-69
2022/03/29 03:55:07;;;;;;;5.57;3.00;;;16.30;91.70;;;;;;2005266;28;20181;-70
2022/03/29 03:56:07;;;;;;;5.45;3.33;;;16.30;91.70;;;;;;2004350;28;20436;-70
2022/03/29 03:57:06;;;;;;;4.82;3.38;;;16.30;91.70;;;;;;2004566;28;20549;-70
2022/03/29 03:58:04;;;;;;;4.67;3.30;;;16.30;91.70;;;;;;2005004;28;20182;-70
2022/03/29 03:59:03;;;;;;;4.90;3.30;;;16.30;91.80;;;;;;2005132;28;20181;-71
2022/03/29 04:00:06;;;;;;;11.50;3.87;;;16.30;91.80;;;;;;2005314;28;20169;-69
2022/03/29 04:01:04;;;;;;;6.97;3.40;;;16.40;91.80;;;;;;2005101;28;20498;-69
2022/03/29 04:02:03;;;;;;;5.13;3.10;;;16.30;91.80;;;;;;2005223;28;20200;-70
2022/03/29 04:03:02;;;;;;;6.23;3.00;;;16.30;91.70;;;;;;2005072;28;20193;-70
2022/03/29 04:04:00;;;;;;;3.80;3.10;;;16.40;91.90;;;;;;2005061;28;20407;-70
2022/03/29 04:04:59;;;;;;;6.70;2.73;;;16.40;91.80;;;;;;2004408;28;20657;-69
2022/03/29 04:05:57;;;;;;;5.47;3.23;;;16.30;91.80;;;;;;2004555;28;20312;-69
2022/03/29 04:06:56;;;;;;;5.80;3.30;;;16.30;91.80;;;;;;2004953;28;20177;-69
2022/03/29 04:07:55;;;;;;;7.25;3.63;;;16.30;91.80;;;;;;2004991;28;20165;-70
2022/03/29 04:08:53;;;;;;;5.10;3.20;;;16.30;91.70;;;;;;2004953;28;20244;-69
2022/03/29 04:09:52;;;;;;;4.23;2.93;;;16.30;91.80;;;;;;2005063;28;20161;-69
2022/03/29 04:10:51;;;;;;;3.80;2.73;;;16.30;91.80;;;;;;2005284;28;20702;-70
2022/03/29 04:11:49;;;;;;;4.10;3.10;;;16.30;91.80;;;;;;2004968;28;20790;-69
2022/03/29 04:12:48;;;;;;;3.87;2.70;;;16.30;91.70;;;;;;2005059;28;20256;-71
2022/03/29 04:13:47;;;;;;;6.10;3.43;;;16.30;91.70;;;;;;2004974;28;20202;-69
2022/03/29 04:14:45;;;;;;;4.93;3.50;;;16.30;91.70;;;;;;2005013;28;20267;-70
2022/03/29 04:15:44;;;;;;;4.90;2.93;;;16.30;91.60;;;;;;2004811;28;20240;-70
2022/03/29 04:16:43;;;;;;;4.97;2.80;;;16.30;91.60;;;;;;2004916;28;20261;-70
2022/03/29 04:17:41;;;;;;;7.40;3.20;;;16.30;91.80;;;;;;2005099;28;20239;-70
2022/03/29 04:18:40;;;;;;;5.27;3.53;;;16.30;91.70;;;;;;2004326;28;20603;-70
2022/03/29 04:19:39;;;;;;;8.10;3.40;;;16.30;91.80;;;;;;2004427;28;20256;-70
2022/03/29 04:20:38;;;;;;;6.00;3.33;;;16.30;91.80;;;;;;2004915;28;20169;-69
2022/03/29 04:21:36;;;;;;;6.30;3.57;;;16.30;91.70;;;;;;2005034;28;20411;-70
2022/03/29 04:22:35;;;;;;;8.77;3.37;;;16.30;91.60;;;;;;2004926;28;20818;-70
2022/03/29 04:23:35;;;;;;;3.97;3.00;;;16.30;91.70;;;;;;2004916;28;20164;-70
2022/03/29 04:24:34;;;;;;;3.80;3.22;;;16.30;91.70;;;;;;2004807;28;20652;-69
2022/03/29 04:25:32;;;;;;;4.90;3.00;;;16.30;91.90;;;;;;2004845;28;20181;-69
2022/03/29 04:26:31;;;;;;;6.10;3.30;;;16.30;91.80;;;;;;2004904;28;20283;-70
2022/03/29 04:27:29;;;;;;;4.93;3.60;;;16.30;91.90;;;;;;2004985;28;20173;-70
2022/03/29 04:28:28;;;;;;;5.40;3.37;;;16.30;91.90;;;;;;2004952;28;20173;-70
2022/03/29 04:29:27;;;;;;;3.87;2.83;;;16.30;91.70;;;;;;2004756;28;20208;-70
2022/03/29 04:30:26;;;;;;;6.50;3.20;;;16.30;91.70;;;;;;2004903;28;20180;-70
2022/03/29 04:31:25;;;;;;;4.40;3.85;;;16.30;91.80;;;;;;2004884;28;20176;-69
2022/03/29 04:32:24;;;;;;;4.73;2.83;;;16.40;91.90;;;;;;2004882;28;20183;-70
2022/03/29 04:33:22;;;;;;;5.63;2.83;;;16.40;91.80;;;;;;2004854;28;20189;-70
2022/03/29 04:34:21;;;;;;;4.83;2.73;;;16.20;91.70;;;;;;2004855;28;20208;-70
2022/03/29 04:35:20;;;;;;;4.27;2.87;;;16.30;91.90;;;;;;2004892;28;20169;-70
2022/03/29 04:36:19;;;;;;;10.75;3.50;;;16.20;91.70;;;;;;2004807;28;20175;-70
2022/03/29 04:37:17;;;;;;;7.33;2.80;;;16.30;91.80;;;;;;2004866;28;20547;-70
2022/03/29 04:38:16;;;;;;;4.17;2.70;;;16.30;91.80;;;;;;2004749;28;20173;-70
2022/03/29 04:39:14;;;;;;;7.83;3.60;;;16.30;91.70;;;;;;2004847;28;20604;-70
2022/03/29 04:40:13;;;;;;;7.43;3.10;;;16.30;91.90;;;;;;2004762;28;20711;-70
2022/03/29 04:41:12;;;;;;;7.10;3.42;;;16.20;91.80;;;;;;2004794;28;20173;-69
2022/03/29 04:42:11;;;;;;;5.50;2.93;;;16.30;91.80;;;;;;2004140;28;20592;-69
2022/03/29 04:43:09;;;;;;;5.20;3.80;;;16.30;91.80;;;;;;2004313;28;20177;-69
2022/03/29 04:44:08;;;;;;;5.20;3.57;;;16.30;91.90;;;;;;2004724;28;20187;-70
2022/03/29 04:45:07;;;;;;;6.50;3.67;;;16.20;91.70;;;;;;2004734;28;20183;-70
2022/03/29 04:46:06;;;;;;;5.87;3.20;;;16.20;91.70;;;;;;2004719;28;20197;-70
2022/03/29 04:47:05;;;;;;;6.50;3.65;;;16.20;91.80;;;;;;2004093;28;20416;-70
2022/03/29 04:48:05;;;;;;;8.90;3.33;;;16.20;91.70;;;;;;2004206;28;20616;-69
2022/03/29 04:49:04;;;;;;;4.32;3.22;;;16.20;91.70;;;;;;2004727;28;20196;-70
2022/03/29 04:50:03;;;;;;;4.37;2.60;;;16.20;91.80;;;;;;2004806;28;20253;-70
2022/03/29 04:51:02;;;;;;;5.20;3.10;;;16.20;91.80;;;;;;2004747;28;20165;-70
2022/03/29 04:52:01;;;;;;;5.55;3.15;;;16.20;91.80;;;;;;2004043;28;20185;-70
2022/03/29 04:52:59;;;;;;;7.20;3.90;;;16.20;91.80;;;;;;2004276;28;20216;-71
2022/03/29 04:53:58;;;;;;;6.97;3.10;;;16.20;91.70;;;;;;2004709;28;20629;-70
2022/03/29 04:54:56;;;;;;;6.80;3.07;;;16.20;91.80;;;;;;2004421;28;20508;-70
2022/03/29 04:55:56;;;;;;;6.70;3.30;;;16.20;91.80;;;;;;2004754;28;20669;-69
2022/03/29 04:56:54;;;;;;;8.27;3.75;;;16.20;91.70;;;;;;2004946;28;20157;-71
2022/03/29 04:57:53;;;;;;;4.47;2.73;;;16.20;91.80;;;;;;2004915;28;20161;-69
2022/03/29 04:58:51;;;;;;;5.20;2.87;;;16.20;91.80;;;;;;2004782;28;20436;-70
2022/03/29 04:59:50;;;;;;;5.70;2.90;;;16.20;92.10;;;;;;2004026;28;20192;-70
2022/03/29 05:00:49;;;;;;;3.27;2.57;;;16.20;91.90;;;;;;2004236;28;20188;-71
2022/03/29 05:01:47;;;;;;;5.90;3.00;;;16.20;91.80;;;;;;2004747;28;20260;-70
2022/03/29 05:02:46;;;;;;;3.97;2.80;;;16.20;91.80;;;;;;2004743;28;20658;-70
2022/03/29 05:03:45;;;;;;;5.27;3.30;;;16.20;91.90;;;;;;2004679;28;20177;-70
2022/03/29 05:04:44;;;;;;;5.00;3.37;;;16.20;91.80;;;;;;2004762;28;20758;-69
2022/03/29 05:05:43;;;;;;;4.00;2.65;;;16.10;91.80;;;;;;2004620;28;20189;-70
2022/03/29 05:06:42;;;;;;;6.47;2.97;;;16.20;91.70;;;;;;2004652;28;20181;-69
2022/03/29 05:07:42;;;;;;;6.00;2.77;;;16.20;91.80;;;;;;2004630;28;20646;-71
2022/03/29 05:08:40;;;;;;;3.55;3.20;;;16.10;91.70;;;;;;2004697;28;20242;-71
2022/03/29 05:09:39;;;;;;;6.03;3.40;;;16.20;91.70;;;;;;2004631;28;20185;-70
2022/03/29 05:10:37;;;;;;;5.77;3.40;;;16.10;91.70;;;;;;2004589;28;20193;-70
2022/03/29 05:11:36;;;;;;;5.63;2.93;;;16.20;91.90;;;;;;2003982;28;20176;-70